Time;durP1;ratioP1;P1;durP2;ratioP2;P2;SDS_P1;SDS_P2;PMS_P1;PMS_P2;Temp;Humidity;BMP_temperature;BMP_pressure;BME280_temperature;BME280_humidity;BME280_pressure;Samples;Min_cycle;Max_cycle;Signal;HPM_P1;HPM_P2
2021/12/06 00:01:07;;;;;;;39.80;16.23;;;19.70;61.00;;;;;;4495081;31;20125;-75
2021/12/06 00:03:40;;;;;;;39.55;15.30;;;19.70;61.00;;;;;;4496255;31;20128;-75
2021/12/06 00:06:06;;;;;;;39.35;14.98;;;19.70;61.00;;;;;;4494866;31;20133;-75
2021/12/06 00:08:32;;;;;;;39.97;16.75;;;19.60;61.00;;;;;;4483122;31;20124;-75
2021/12/06 00:10:58;;;;;;;37.58;14.77;;;19.60;61.00;;;;;;4494539;31;20233;-75
2021/12/06 00:13:24;;;;;;;41.28;15.88;;;19.60;61.00;;;;;;4496165;31;20907;-75
2021/12/06 00:15:51;;;;;;;38.25;15.23;;;19.60;61.10;;;;;;4496473;31;20077;-76
2021/12/06 00:18:19;;;;;;;38.15;15.85;;;19.60;61.10;;;;;;4495032;31;20124;-75
2021/12/06 00:20:45;;;;;;;37.38;14.38;;;19.60;61.10;;;;;;4496083;31;20139;-75
2021/12/06 00:23:11;;;;;;;38.28;14.93;;;19.60;61.10;;;;;;4494943;31;20139;-76
2021/12/06 00:25:37;;;;;;;33.00;13.63;;;19.50;61.10;;;;;;4495806;31;20274;-75
2021/12/06 00:28:03;;;;;;;31.73;13.43;;;19.50;61.10;;;;;;4495307;31;20124;-74
2021/12/06 00:30:29;;;;;;;34.33;13.85;;;19.50;61.10;;;;;;4496011;31;20128;-74
2021/12/06 00:32:55;;;;;;;30.30;14.05;;;19.50;61.10;;;;;;4495585;31;20166;-75
2021/12/06 00:35:23;;;;;;;36.40;13.27;;;19.50;61.10;;;;;;4494901;31;20128;-74
2021/12/06 00:37:58;;;;;;;30.83;13.70;;;19.50;61.20;;;;;;4495637;31;20186;-75
2021/12/06 00:40:40;;;;;;;32.63;13.15;;;19.40;61.10;;;;;;4493662;31;20144;-74
2021/12/06 00:43:06;;;;;;;29.70;13.20;;;19.40;61.20;;;;;;4496309;31;20494;-75
2021/12/06 00:45:33;;;;;;;32.13;13.23;;;19.40;61.20;;;;;;4495064;31;20140;-76
2021/12/06 00:48:00;;;;;;;31.15;13.25;;;19.40;61.30;;;;;;4493736;31;20128;-75
2021/12/06 00:50:33;;;;;;;30.90;12.95;;;19.30;61.20;;;;;;4495475;31;20132;-76
2021/12/06 00:52:59;;;;;;;31.47;12.97;;;19.30;61.20;;;;;;4494276;31;20151;-75
2021/12/06 00:55:25;;;;;;;30.33;12.18;;;19.30;61.30;;;;;;4496826;31;20133;-75
2021/12/06 00:57:54;;;;;;;30.92;12.73;;;19.30;61.20;;;;;;4480485;31;20153;-75
2021/12/06 01:00:40;;;;;;;31.13;12.07;;;19.30;61.20;;;;;;4494921;31;20130;-75
2021/12/06 01:03:16;;;;;;;27.67;11.73;;;19.30;61.20;;;;;;4496227;31;20753;-75
2021/12/06 01:05:42;;;;;;;28.35;12.32;;;19.30;61.30;;;;;;4493455;31;20221;-75
2021/12/06 01:08:08;;;;;;;29.90;12.70;;;19.30;61.30;;;;;;4495408;32;20151;-75
2021/12/06 01:10:35;;;;;;;28.58;12.40;;;19.20;61.40;;;;;;4493207;32;20129;-75
2021/12/06 01:13:02;;;;;;;30.42;11.88;;;19.20;61.30;;;;;;4494991;32;20187;-75
2021/12/06 01:15:29;;;;;;;24.60;11.98;;;19.20;61.30;;;;;;4494578;32;20138;-75
2021/12/06 01:17:58;;;;;;;27.90;11.43;;;19.20;61.30;;;;;;4496222;31;20138;-75
2021/12/06 01:20:28;;;;;;;27.25;10.02;;;19.20;61.40;;;;;;4498633;31;20179;-74
2021/12/06 01:23:00;;;;;;;24.02;11.00;;;19.20;61.40;;;;;;4483789;31;20125;-75
2021/12/06 01:33:26;;;;;;;21.65;10.50;;;19.10;61.40;;;;;;4499080;31;20198;-75
2021/12/06 01:41:17;;;;;;;23.10;10.23;;;19.10;61.50;;;;;;4498950;31;20253;-75
2021/12/06 01:44:24;;;;;;;23.63;10.23;;;19.10;61.40;;;;;;4497548;31;20132;-74
2021/12/06 01:46:54;;;;;;;27.35;9.63;;;19.00;61.40;;;;;;4491847;31;20140;-75
2021/12/06 01:49:24;;;;;;;22.42;10.25;;;19.00;61.40;;;;;;4497695;31;20307;-75
2021/12/06 01:51:52;;;;;;;23.40;9.95;;;19.00;61.50;;;;;;4498917;31;20127;-75
2021/12/06 01:54:19;;;;;;;22.17;10.48;;;19.00;61.50;;;;;;4499040;31;20116;-75
2021/12/06 01:56:47;;;;;;;23.20;9.32;;;19.00;61.50;;;;;;4497451;31;20144;-75
2021/12/06 01:59:13;;;;;;;20.20;9.23;;;19.00;61.50;;;;;;4497861;31;20128;-75
2021/12/06 02:01:40;;;;;;;20.98;9.13;;;19.00;61.50;;;;;;4496664;31;20120;-75
2021/12/06 02:04:06;;;;;;;23.15;9.32;;;19.00;61.50;;;;;;4497973;31;20125;-75
2021/12/06 02:06:32;;;;;;;22.88;9.75;;;19.00;61.50;;;;;;4483318;31;20186;-74
2021/12/06 02:08:58;;;;;;;20.55;8.95;;;19.00;61.50;;;;;;4497052;31;20715;-74
2021/12/06 02:11:27;;;;;;;19.20;9.30;;;18.90;61.40;;;;;;4497628;31;20186;-75
2021/12/06 02:14:47;;;;;;;19.83;9.57;;;18.90;61.50;;;;;;4497142;31;20497;-74
2021/12/06 02:17:00;;;;;;;18.83;9.07;;;18.90;61.50;;;;;;4489543;31;20589;-74
2021/12/06 02:19:31;;;;;;;18.17;8.63;;;18.90;61.40;;;;;;4497394;31;20145;-75
2021/12/06 02:21:59;;;;;;;18.48;8.75;;;18.90;61.50;;;;;;4496482;31;20151;-75
2021/12/06 02:24:25;;;;;;;17.80;8.73;;;18.90;61.60;;;;;;4498534;31;20270;-75
2021/12/06 02:26:53;;;;;;;18.60;9.23;;;18.90;61.60;;;;;;4495532;31;20125;-75
2021/12/06 02:29:20;;;;;;;19.17;8.98;;;18.90;61.50;;;;;;4498462;31;20136;-75
2021/12/06 02:31:47;;;;;;;18.48;8.10;;;18.80;61.50;;;;;;4496600;31;20132;-75
2021/12/06 02:34:13;;;;;;;16.15;8.32;;;18.80;61.50;;;;;;4484220;31;20182;-75
2021/12/06 02:36:39;;;;;;;17.33;7.63;;;18.80;61.50;;;;;;4496480;31;20133;-75
2021/12/06 02:39:09;;;;;;;19.27;8.43;;;18.80;61.50;;;;;;4483110;31;20116;-75
2021/12/06 02:41:35;;;;;;;20.95;8.68;;;18.80;61.50;;;;;;4497258;31;20132;-75
2021/12/06 02:44:02;;;;;;;18.08;8.82;;;18.80;61.50;;;;;;4496276;31;20116;-75
2021/12/06 02:46:28;;;;;;;17.83;8.02;;;18.80;61.50;;;;;;4497299;31;20620;-75
2021/12/06 02:48:54;;;;;;;16.30;8.27;;;18.70;61.50;;;;;;4495339;31;20120;-74
2021/12/06 02:51:21;;;;;;;16.88;7.97;;;18.70;61.50;;;;;;4497139;31;20594;-75
2021/12/06 02:53:49;;;;;;;16.67;7.30;;;18.70;61.50;;;;;;4486624;31;20259;-75
2021/12/06 02:57:20;;;;;;;14.63;7.43;;;18.70;61.40;;;;;;4480849;31;20606;-74
2021/12/06 02:59:10;;;;;;;17.30;7.50;;;18.70;61.50;;;;;;4484711;31;20163;-75
2021/12/06 03:01:46;;;;;;;15.57;7.75;;;18.70;61.50;;;;;;4481891;31;20132;-75
2021/12/06 03:04:12;;;;;;;16.95;7.97;;;18.70;61.50;;;;;;4486104;31;20199;-75
2021/12/06 03:06:40;;;;;;;16.67;7.85;;;18.70;61.60;;;;;;4480883;31;20188;-75
2021/12/06 03:09:12;;;;;;;15.75;7.50;;;18.70;61.60;;;;;;4492902;31;20141;-74
2021/12/06 03:11:52;;;;;;;13.00;7.43;;;18.70;61.50;;;;;;4481922;31;20552;-75
2021/12/06 03:14:26;;;;;;;15.68;6.90;;;18.60;61.50;;;;;;4480577;31;20180;-75
2021/12/06 03:16:54;;;;;;;14.27;7.40;;;18.60;61.60;;;;;;4482057;31;20120;-74
2021/12/06 03:19:20;;;;;;;13.82;7.07;;;18.60;61.60;;;;;;4479078;31;20152;-75
2021/12/06 03:21:46;;;;;;;14.18;7.18;;;18.60;61.60;;;;;;4480967;31;20242;-75
2021/12/06 03:24:13;;;;;;;12.90;6.57;;;18.60;61.60;;;;;;4482266;31;20313;-75
2021/12/06 03:26:41;;;;;;;13.63;6.97;;;18.60;61.60;;;;;;4465752;31;20146;-75
2021/12/06 03:29:07;;;;;;;13.88;7.28;;;18.60;61.50;;;;;;4480488;31;20147;-74
2021/12/06 03:31:33;;;;;;;14.57;6.85;;;18.60;61.60;;;;;;4479483;31;20128;-75
2021/12/06 03:34:00;;;;;;;12.88;6.20;;;18.50;61.60;;;;;;4493626;31;20161;-75
2021/12/06 03:36:29;;;;;;;12.95;6.53;;;18.60;61.60;;;;;;4479784;31;20125;-75
2021/12/06 03:38:56;;;;;;;12.70;7.10;;;18.50;61.60;;;;;;4483026;31;20258;-75
2021/12/06 03:41:24;;;;;;;12.50;5.97;;;18.50;61.60;;;;;;4479255;31;20121;-74
2021/12/06 03:43:52;;;;;;;12.32;6.53;;;18.50;61.60;;;;;;4465423;32;20198;-74
2021/12/06 03:46:20;;;;;;;11.48;6.32;;;18.50;61.60;;;;;;4493591;31;20133;-75
2021/12/06 03:48:47;;;;;;;12.15;6.28;;;18.50;61.60;;;;;;4480322;31;20329;-74
2021/12/06 03:51:14;;;;;;;14.40;6.25;;;18.50;61.60;;;;;;4482318;31;21552;-74
2021/12/06 03:53:41;;;;;;;13.80;6.75;;;18.50;61.60;;;;;;4493502;31;20170;-75
2021/12/06 03:56:07;;;;;;;11.70;6.00;;;18.50;61.60;;;;;;4494967;31;20326;-75
2021/12/06 03:58:34;;;;;;;10.90;5.72;;;18.50;61.70;;;;;;4495229;31;20096;-75
2021/12/06 04:01:02;;;;;;;12.07;6.00;;;18.50;61.70;;;;;;4495452;31;20282;-75
2021/12/06 04:03:30;;;;;;;12.65;6.50;;;18.50;61.70;;;;;;4495991;31;20140;-75
2021/12/06 04:05:56;;;;;;;13.10;6.18;;;18.50;61.70;;;;;;4495039;31;20117;-75
2021/12/06 04:08:22;;;;;;;11.10;6.05;;;18.40;61.70;;;;;;4497164;31;20685;-75
2021/12/06 04:10:48;;;;;;;13.80;6.60;;;18.40;61.60;;;;;;4494871;31;20556;-75
2021/12/06 04:13:15;;;;;;;11.07;6.22;;;18.40;61.70;;;;;;4482099;31;20221;-74
2021/12/06 04:15:44;;;;;;;12.60;5.82;;;18.40;61.60;;;;;;4482805;31;20073;-75
2021/12/06 04:18:10;;;;;;;9.55;5.38;;;18.40;61.70;;;;;;4495257;31;20139;-75
2021/12/06 04:20:37;;;;;;;10.25;5.70;;;18.40;61.70;;;;;;4495918;31;20133;-75
2021/12/06 04:23:06;;;;;;;10.40;5.50;;;18.40;61.70;;;;;;4494774;31;20151;-75
2021/12/06 04:25:34;;;;;;;13.45;6.68;;;18.40;61.70;;;;;;4496684;31;20140;-75
2021/12/06 04:28:05;;;;;;;12.10;6.00;;;18.40;61.80;;;;;;4494414;31;20309;-75
2021/12/06 04:30:34;;;;;;;10.95;6.65;;;18.40;61.70;;;;;;4494726;31;20132;-74
2021/12/06 04:33:00;;;;;;;11.68;5.85;;;18.30;61.70;;;;;;4497046;31;20194;-75
2021/12/06 04:35:28;;;;;;;9.90;5.30;;;18.30;61.70;;;;;;4494701;31;20237;-74
2021/12/06 04:37:54;;;;;;;8.93;5.68;;;18.30;61.80;;;;;;4495790;31;20146;-75
2021/12/06 04:40:20;;;;;;;9.43;5.40;;;18.30;61.70;;;;;;4493617;31;20120;-74
2021/12/06 04:42:47;;;;;;;8.02;5.18;;;18.30;61.70;;;;;;4496526;31;20116;-74
2021/12/06 04:45:14;;;;;;;9.52;5.22;;;18.30;61.70;;;;;;4494490;31;20113;-75
2021/12/06 04:47:40;;;;;;;8.05;5.07;;;18.30;61.70;;;;;;4480596;31;20133;-74
2021/12/06 04:50:09;;;;;;;8.73;5.05;;;18.30;61.70;;;;;;4494851;31;20505;-75
2021/12/06 04:52:37;;;;;;;11.02;5.85;;;18.30;61.70;;;;;;4493251;31;20136;-75
2021/12/06 04:55:12;;;;;;;11.10;5.40;;;18.30;61.80;;;;;;4496877;31;20147;-74
2021/12/06 04:57:42;;;;;;;9.77;5.22;;;18.30;61.80;;;;;;4481751;31;20279;-75
2021/12/06 05:00:18;;;;;;;8.18;4.97;;;18.20;61.70;;;;;;4480183;31;20765;-75
2021/12/06 05:02:46;;;;;;;10.00;4.95;;;18.20;61.70;;;;;;4478903;31;20517;-75
2021/12/06 05:05:26;;;;;;;8.80;5.07;;;18.20;61.70;;;;;;4478758;31;20129;-74
2021/12/06 05:07:57;;;;;;;10.70;5.05;;;18.20;61.80;;;;;;4479449;32;20218;-74
2021/12/06 05:10:24;;;;;;;7.60;4.93;;;18.20;61.70;;;;;;4478171;32;20133;-74
2021/12/06 05:12:50;;;;;;;10.05;4.97;;;18.20;61.80;;;;;;4479270;32;20583;-74
2021/12/06 05:15:17;;;;;;;8.95;5.18;;;18.20;61.80;;;;;;4478371;32;20113;-74
2021/12/06 05:17:44;;;;;;;8.63;4.70;;;18.20;61.80;;;;;;4477813;32;20140;-75
2021/12/06 05:20:11;;;;;;;9.48;5.47;;;18.10;61.70;;;;;;4466303;32;20200;-75
2021/12/06 05:22:37;;;;;;;8.32;5.13;;;18.10;61.70;;;;;;4478922;32;20136;-75
2021/12/06 05:25:04;;;;;;;8.82;5.30;;;18.20;61.80;;;;;;4491946;31;20151;-75
2021/12/06 05:27:31;;;;;;;6.55;4.47;;;18.10;61.80;;;;;;4478097;32;20614;-75
2021/12/06 05:30:01;;;;;;;8.80;4.95;;;18.10;61.70;;;;;;4491351;31;20558;-74
2021/12/06 05:32:31;;;;;;;10.73;4.78;;;18.10;61.70;;;;;;4478639;32;20137;-74
2021/12/06 05:35:04;;;;;;;10.90;4.65;;;18.10;61.70;;;;;;4479116;32;20179;-74
2021/12/06 05:37:31;;;;;;;8.00;4.78;;;18.10;61.70;;;;;;4479446;32;20659;-74
2021/12/06 05:39:57;;;;;;;9.55;4.75;;;18.10;61.80;;;;;;4478674;32;20129;-74
2021/12/06 05:42:23;;;;;;;9.02;5.30;;;18.10;61.80;;;;;;4480420;32;20143;-74
2021/12/06 05:44:50;;;;;;;7.95;4.75;;;18.10;61.80;;;;;;4478752;32;20176;-74
2021/12/06 05:47:17;;;;;;;7.65;4.65;;;18.10;61.80;;;;;;4480171;32;20133;-74
2021/12/06 05:49:42;;;;;;;9.60;5.35;;;18.10;61.70;;;;;;4479695;32;20263;-74
2021/12/06 05:52:10;;;;;;;7.97;4.63;;;18.10;61.80;;;;;;4478924;32;20152;-74
2021/12/06 05:54:36;;;;;;;8.65;4.53;;;18.10;61.80;;;;;;4492266;32;20144;-74
2021/12/06 05:57:06;;;;;;;8.52;4.53;;;18.00;61.80;;;;;;4478285;32;20149;-74
2021/12/06 05:59:32;;;;;;;6.07;4.43;;;18.00;61.80;;;;;;4480363;32;20143;-74
2021/12/06 06:01:57;;;;;;;7.63;4.63;;;18.00;61.80;;;;;;4478411;32;20168;-74
2021/12/06 06:04:26;;;;;;;8.13;4.93;;;18.00;61.80;;;;;;4467671;32;20186;-75
2021/12/06 06:06:52;;;;;;;8.13;4.90;;;18.00;61.80;;;;;;4482693;32;20552;-74
2021/12/06 06:09:18;;;;;;;7.63;4.32;;;18.00;61.80;;;;;;4480721;32;20156;-74
2021/12/06 06:11:45;;;;;;;8.75;4.88;;;18.00;61.80;;;;;;4495003;31;20140;-74
2021/12/06 06:14:11;;;;;;;8.07;5.13;;;18.00;62.60;;;;;;4480419;32;20137;-74
2021/12/06 06:16:47;;;;;;;8.32;4.45;;;18.00;61.80;;;;;;4482040;32;20133;-74
2021/12/06 06:19:17;;;;;;;9.10;5.75;;;17.90;61.70;;;;;;4480561;32;20128;-74
2021/12/06 06:21:44;;;;;;;7.75;4.93;;;17.90;61.70;;;;;;4482094;32;20125;-74
2021/12/06 06:24:10;;;;;;;7.25;4.70;;;17.90;61.80;;;;;;4468621;32;20085;-74
2021/12/06 06:26:36;;;;;;;7.43;4.38;;;17.90;61.70;;;;;;4479905;32;20136;-74
2021/12/06 06:29:02;;;;;;;8.45;4.75;;;17.90;61.70;;;;;;4451675;32;20130;-74
2021/12/06 06:31:28;;;;;;;7.75;4.72;;;17.90;61.70;;;;;;4448334;32;20215;-74
2021/12/06 06:33:54;;;;;;;6.13;4.07;;;17.90;62.60;;;;;;4437932;32;20495;-74
2021/12/06 06:36:20;;;;;;;8.10;4.70;;;17.90;61.70;;;;;;4449911;32;20117;-74
2021/12/06 06:38:46;;;;;;;6.90;4.57;;;17.90;61.80;;;;;;4450716;32;20143;-74
2021/12/06 06:41:12;;;;;;;7.43;4.82;;;17.90;61.80;;;;;;4450049;32;20114;-74
2021/12/06 06:43:39;;;;;;;7.45;4.60;;;17.80;61.70;;;;;;4449565;32;20403;-74
2021/12/06 06:46:06;;;;;;;7.35;4.45;;;17.80;61.70;;;;;;4450512;32;20129;-74
2021/12/06 06:48:32;;;;;;;6.43;4.45;;;17.80;62.70;;;;;;4449442;32;20137;-74
2021/12/06 06:50:59;;;;;;;7.40;4.65;;;17.80;61.80;;;;;;4463412;32;20141;-74
2021/12/06 06:53:29;;;;;;;7.13;4.80;;;17.80;61.80;;;;;;4449776;32;20589;-74
2021/12/06 06:55:56;;;;;;;7.53;4.65;;;17.80;61.80;;;;;;4450965;32;20144;-74
2021/12/06 06:58:24;;;;;;;8.25;4.78;;;17.80;61.80;;;;;;4462803;32;20275;-74
2021/12/06 07:00:50;;;;;;;6.78;4.53;;;17.80;61.80;;;;;;4461190;32;20275;-74
2021/12/06 07:03:16;;;;;;;7.28;4.65;;;17.80;61.80;;;;;;4450252;32;20196;-74
2021/12/06 07:05:42;;;;;;;6.97;4.72;;;17.80;61.80;;;;;;4460771;32;20259;-74
2021/12/06 07:08:08;;;;;;;7.30;4.45;;;17.80;61.80;;;;;;4437294;32;20137;-74
2021/12/06 07:10:34;;;;;;;7.88;4.90;;;17.80;61.80;;;;;;4448526;32;20126;-74
2021/12/06 07:13:04;;;;;;;6.13;4.07;;;17.70;61.70;;;;;;4449779;32;20191;-74
2021/12/06 07:15:33;;;;;;;6.50;4.95;;;17.70;61.70;;;;;;4449659;32;20118;-74
2021/12/06 07:18:01;;;;;;;7.03;4.95;;;17.70;61.60;;;;;;4447855;32;20191;-74
2021/12/06 07:20:30;;;;;;;9.05;5.07;;;17.70;61.70;;;;;;4451159;32;20188;-74
2021/12/06 07:22:56;;;;;;;8.23;5.22;;;17.70;61.70;;;;;;4448409;32;20152;-74
2021/12/06 07:25:22;;;;;;;6.40;4.70;;;17.70;61.70;;;;;;4463072;32;20544;-74
2021/12/06 07:27:51;;;;;;;6.55;4.72;;;17.70;61.70;;;;;;4464376;32;20152;-74
2021/12/06 07:30:18;;;;;;;5.97;4.30;;;17.60;61.60;;;;;;4481626;31;20141;-74
2021/12/06 07:32:44;;;;;;;6.43;4.65;;;17.60;61.70;;;;;;4481296;32;20081;-74
2021/12/06 07:35:11;;;;;;;7.40;4.28;;;17.60;61.70;;;;;;4480191;32;20176;-74
2021/12/06 07:37:37;;;;;;;5.70;4.60;;;17.60;61.70;;;;;;4468027;32;20198;-74
2021/12/06 07:40:09;;;;;;;6.30;4.50;;;17.60;61.70;;;;;;4479602;31;20125;-74
2021/12/06 07:42:35;;;;;;;8.30;4.53;;;17.60;61.70;;;;;;4493835;31;20137;-74
2021/12/06 07:45:04;;;;;;;5.88;4.07;;;17.60;61.70;;;;;;4480125;32;20192;-74
2021/12/06 07:47:29;;;;;;;7.00;4.72;;;17.60;61.70;;;;;;4493147;31;20144;-74
2021/12/06 07:49:55;;;;;;;6.95;4.47;;;17.60;61.70;;;;;;4493365;31;20081;-74
2021/12/06 07:52:21;;;;;;;5.93;4.53;;;17.60;61.70;;;;;;4478793;32;20183;-74
2021/12/06 07:54:47;;;;;;;5.97;4.55;;;17.60;61.70;;;;;;4481741;32;20147;-73
2021/12/06 07:57:13;;;;;;;8.60;4.72;;;17.60;61.70;;;;;;4479482;32;20263;-74
2021/12/06 07:59:41;;;;;;;6.50;4.15;;;17.60;61.70;;;;;;4480578;32;20149;-74
2021/12/06 08:02:08;;;;;;;6.15;4.40;;;17.60;61.80;;;;;;4479008;31;20132;-74
2021/12/06 08:04:35;;;;;;;6.72;4.40;;;17.50;61.70;;;;;;4479874;32;20529;-75
2021/12/06 08:07:01;;;;;;;6.28;4.45;;;17.50;61.70;;;;;;4492921;31;20595;-74
2021/12/06 08:09:27;;;;;;;6.47;4.18;;;17.50;61.70;;;;;;4478710;31;20274;-75
2021/12/06 08:11:53;;;;;;;5.95;4.28;;;17.60;61.70;;;;;;4481338;32;20136;-72
2021/12/06 08:14:19;;;;;;;5.95;4.03;;;17.50;61.60;;;;;;4491102;31;20153;-70
2021/12/06 08:16:46;;;;;;;8.93;6.10;;;17.50;61.70;;;;;;4481180;32;20144;-70
2021/12/06 08:19:13;;;;;;;10.85;7.75;;;17.50;61.40;;;;;;4491392;31;20557;-70
2021/12/06 08:21:39;;;;;;;11.50;7.97;;;17.50;60.80;;;;;;4479279;31;20144;-73
2021/12/06 08:24:06;;;;;;;11.48;7.50;;;17.40;60.40;;;;;;4480147;31;20412;-73
2021/12/06 08:26:36;;;;;;;9.77;7.68;;;17.40;61.30;;;;;;4478273;31;20137;-72
2021/12/06 08:29:06;;;;;;;11.32;7.97;;;17.40;60.60;;;;;;4479842;31;20606;-73
2021/12/06 08:31:34;;;;;;;10.70;7.85;;;17.30;60.50;;;;;;4479289;31;20183;-72
2021/12/06 08:34:01;;;;;;;11.63;7.70;;;17.40;61.30;;;;;;4480053;31;20148;-74
2021/12/06 08:36:27;;;;;;;11.98;8.02;;;17.40;60.50;;;;;;4478117;31;20490;-73
2021/12/06 08:38:54;;;;;;;8.73;6.82;;;17.30;60.40;;;;;;4479160;31;20144;-72
2021/12/06 08:41:24;;;;;;;9.95;7.50;;;17.30;60.40;;;;;;4479695;31;20239;-73
2021/12/06 08:43:50;;;;;;;7.60;6.43;;;17.30;60.40;;;;;;4478399;31;20143;-71
2021/12/06 08:46:25;;;;;;;8.27;6.40;;;17.40;60.50;;;;;;4480110;32;20129;-74
2021/12/06 08:48:53;;;;;;;9.00;6.30;;;17.40;60.60;;;;;;4477839;31;20148;-75
2021/12/06 08:51:41;;;;;;;8.45;6.18;;;17.40;60.60;;;;;;4479731;31;20227;-77
2021/12/06 08:54:08;;;;;;;7.78;5.55;;;17.50;60.60;;;;;;4481486;31;20088;-76
2021/12/06 08:56:36;;;;;;;10.25;6.05;;;17.50;60.50;;;;;;4477916;31;20133;-75
2021/12/06 08:59:03;;;;;;;7.00;5.47;;;17.60;60.50;;;;;;4480000;31;20125;-74
2021/12/06 09:01:30;;;;;;;8.80;5.78;;;17.70;61.10;;;;;;4478614;32;20143;-73
2021/12/06 09:03:56;;;;;;;6.00;4.90;;;17.80;60.10;;;;;;4480593;32;20124;-73
2021/12/06 09:06:22;;;;;;;7.97;4.70;;;17.90;59.80;;;;;;4479235;32;20133;-73
2021/12/06 09:08:48;;;;;;;6.63;5.00;;;18.10;59.50;;;;;;4491013;31;20192;-73
2021/12/06 09:11:14;;;;;;;6.93;4.75;;;18.20;59.30;;;;;;4493132;31;20088;-73
2021/12/06 09:13:41;;;;;;;7.35;4.55;;;18.30;59.10;;;;;;4489662;32;20133;-74
2021/12/06 09:16:09;;;;;;;5.88;4.45;;;18.40;58.90;;;;;;4494124;32;20132;-74
2021/12/06 09:18:41;;;;;;;6.45;4.72;;;18.50;58.70;;;;;;4482797;32;20214;-75
2021/12/06 09:21:12;;;;;;;5.78;4.43;;;18.60;58.50;;;;;;4480508;32;20136;-73
2021/12/06 09:23:38;;;;;;;5.45;4.13;;;18.70;58.20;;;;;;4491284;31;20270;-72
2021/12/06 09:26:06;;;;;;;6.10;4.03;;;18.80;57.90;;;;;;4478462;32;20267;-74
2021/12/06 09:28:34;;;;;;;6.13;4.30;;;19.00;57.70;;;;;;4492420;32;20132;-73
2021/12/06 09:31:03;;;;;;;6.85;4.15;;;19.00;57.40;;;;;;4477238;32;20270;-73
2021/12/06 09:33:31;;;;;;;10.25;4.50;;;19.20;57.20;;;;;;4480289;32;20196;-73
2021/12/06 09:35:59;;;;;;;6.43;4.40;;;19.20;56.80;;;;;;4478303;32;20750;-70
2021/12/06 09:38:34;;;;;;;6.18;4.13;;;19.30;56.60;;;;;;4481017;32;20620;-70
2021/12/06 09:41:03;;;;;;;7.47;4.18;;;19.40;56.50;;;;;;4482556;32;20147;-71
2021/12/06 09:43:29;;;;;;;7.85;4.22;;;19.50;56.40;;;;;;4481781;31;20145;-71
2021/12/06 09:45:56;;;;;;;8.32;4.13;;;19.60;56.30;;;;;;4482727;31;20133;-73
2021/12/06 09:48:22;;;;;;;5.78;4.20;;;19.80;56.10;;;;;;4480965;31;20132;-72
2021/12/06 09:51:00;;;;;;;9.35;4.30;;;19.90;55.90;;;;;;4486876;31;20600;-71
2021/12/06 09:53:29;;;;;;;5.18;3.78;;;20.10;55.70;;;;;;4495674;31;20140;-71
2021/12/06 09:55:59;;;;;;;8.70;4.68;;;20.20;55.40;;;;;;4483900;31;20195;-72
2021/12/06 09:58:25;;;;;;;8.05;3.95;;;20.30;55.20;;;;;;4484874;31;20227;-71
2021/12/06 10:00:57;;;;;;;12.70;3.80;;;20.40;54.80;;;;;;4497210;31;20142;-73
2021/12/06 10:03:28;;;;;;;7.20;4.60;;;20.50;54.60;;;;;;4485988;31;20144;-74
2021/12/06 10:06:01;;;;;;;5.22;4.00;;;20.70;54.50;;;;;;4481049;31;20129;-71
2021/12/06 10:08:30;;;;;;;7.32;4.20;;;20.80;54.30;;;;;;4482834;31;20537;-69
2021/12/06 10:10:56;;;;;;;11.05;4.03;;;20.90;54.20;;;;;;4481919;31;20128;-73
2021/12/06 10:13:23;;;;;;;8.70;4.07;;;20.90;54.00;;;;;;4490934;31;20132;-72
2021/12/06 10:15:52;;;;;;;4.70;3.63;;;21.00;53.90;;;;;;4496795;31;20194;-69
2021/12/06 10:18:20;;;;;;;5.20;3.58;;;21.00;53.70;;;;;;4468785;31;20167;-71
2021/12/06 10:20:48;;;;;;;5.82;3.80;;;21.10;53.70;;;;;;4482721;31;20259;-71
2021/12/06 10:23:16;;;;;;;5.97;3.40;;;21.20;53.60;;;;;;4480497;31;20718;-67
2021/12/06 10:25:47;;;;;;;5.72;3.90;;;21.20;53.40;;;;;;4483348;31;20195;-71
2021/12/06 10:28:14;;;;;;;8.18;3.78;;;21.30;53.40;;;;;;4497603;31;20486;-73
2021/12/06 10:30:46;;;;;;;7.65;3.70;;;21.30;53.40;;;;;;4496909;31;20120;-72
2021/12/06 10:33:16;;;;;;;5.35;3.70;;;21.30;53.40;;;;;;4498215;31;20135;-75
2021/12/06 10:35:45;;;;;;;7.82;4.15;;;21.30;53.20;;;;;;4495412;31;20182;-73
2021/12/06 10:38:17;;;;;;;7.65;3.90;;;21.30;53.20;;;;;;4498311;31;20137;-69
2021/12/06 10:40:43;;;;;;;6.22;4.20;;;21.40;53.20;;;;;;4497174;31;20270;-67
2021/12/06 10:43:11;;;;;;;6.32;4.40;;;21.40;52.90;;;;;;4497404;31;20112;-66
2021/12/06 10:45:44;;;;;;;9.00;4.07;;;21.50;52.80;;;;;;4498241;31;20168;-67
2021/12/06 10:48:21;;;;;;;4.90;4.00;;;21.50;52.80;;;;;;4493746;31;20153;-67
2021/12/06 10:50:57;;;;;;;8.60;3.88;;;21.50;52.70;;;;;;4496481;31;20132;-67
2021/12/06 10:53:31;;;;;;;8.75;4.18;;;21.50;53.80;;;;;;4495411;31;20270;-68
2021/12/06 10:55:57;;;;;;;;;;;21.40;53.00;;;;;;4498396;31;20133;-66
2021/12/06 10:58:27;;;;;;;6.65;3.75;;;21.30;53.40;;;;;;4496016;31;19989;-67
2021/12/06 11:01:06;;;;;;;6.60;3.70;;;21.20;53.60;;;;;;4493481;31;20133;-79
2021/12/06 11:03:40;;;;;;;5.78;3.60;;;21.20;53.90;;;;;;4492541;31;20141;-68
2021/12/06 11:06:16;;;;;;;5.68;4.00;;;21.00;54.20;;;;;;4478895;31;20155;-68
2021/12/06 11:08:44;;;;;;;6.55;4.13;;;20.90;55.50;;;;;;4481413;31;20149;-68
2021/12/06 11:11:13;;;;;;;4.80;3.50;;;20.80;55.00;;;;;;4481277;31;20201;-68
2021/12/06 11:13:46;;;;;;;7.22;4.10;;;20.70;55.20;;;;;;4480316;31;20555;-69
2021/12/06 11:16:15;;;;;;;8.65;3.90;;;20.60;55.40;;;;;;4481530;31;20136;-68
2021/12/06 11:18:48;;;;;;;5.78;3.53;;;20.60;55.40;;;;;;4478753;31;20145;-68
2021/12/06 11:21:45;;;;;;;5.70;3.80;;;20.60;55.60;;;;;;4481785;31;20133;-68
2021/12/06 11:24:24;;;;;;;5.60;3.70;;;20.50;55.70;;;;;;4481572;31;20203;-67
2021/12/06 11:26:58;;;;;;;6.30;3.60;;;20.60;55.70;;;;;;4477943;31;20713;-68
2021/12/06 11:29:24;;;;;;;6.78;3.53;;;20.60;55.60;;;;;;4481540;31;20141;-68
2021/12/06 11:31:55;;;;;;;5.63;3.45;;;20.60;55.50;;;;;;4480032;31;20206;-68
2021/12/06 11:34:26;;;;;;;4.60;3.70;;;20.70;55.50;;;;;;4481061;31;20141;-68
2021/12/06 11:36:52;;;;;;;4.53;3.30;;;20.80;55.50;;;;;;4492289;31;20168;-67
2021/12/06 11:39:21;;;;;;;4.95;3.35;;;20.90;55.30;;;;;;4503244;31;20161;-68
2021/12/06 11:41:54;;;;;;;7.95;3.67;;;20.90;55.10;;;;;;4481873;31;20159;-67
2021/12/06 11:44:31;;;;;;;6.93;3.35;;;21.00;54.90;;;;;;4479267;31;20143;-67
2021/12/06 11:47:04;;;;;;;4.65;3.20;;;21.10;54.80;;;;;;4481030;31;20129;-68
2021/12/06 11:49:35;;;;;;;;;;;21.20;54.60;;;;;;4484029;31;20093;-68
2021/12/06 11:52:03;;;;;;;6.95;3.90;;;21.40;54.50;;;;;;4487330;31;20447;-68
2021/12/06 11:54:36;;;;;;;5.47;3.80;;;21.40;54.00;;;;;;4484618;31;20136;-68
2021/12/06 11:57:24;;;;;;;7.40;4.13;;;21.60;53.60;;;;;;4491548;31;20119;-68
2021/12/06 12:00:01;;;;;;;7.20;3.90;;;21.60;53.40;;;;;;4481701;31;20132;-69
2021/12/06 12:02:32;;;;;;;6.00;3.75;;;21.70;53.10;;;;;;4492358;31;20183;-68
2021/12/06 12:05:18;;;;;;;5.45;3.80;;;21.80;53.20;;;;;;4465856;31;29393;-70
2021/12/06 12:08:13;;;;;;;4.90;3.50;;;21.90;53.20;;;;;;4483236;31;20161;-68
2021/12/06 12:10:49;;;;;;;5.13;3.65;;;21.90;53.10;;;;;;4479648;31;20129;-68
2021/12/06 12:13:36;;;;;;;5.55;3.42;;;21.90;53.10;;;;;;4482315;31;20147;-67
2021/12/06 12:16:08;;;;;;;9.27;4.63;;;21.80;53.30;;;;;;4479302;31;20489;-68
2021/12/06 12:18:36;;;;;;;7.03;5.28;;;21.70;53.00;;;;;;4478179;31;20135;-68
2021/12/06 12:21:04;;;;;;;9.27;5.80;;;21.60;52.70;;;;;;4480416;31;20140;-68
2021/12/06 12:23:34;;;;;;;9.43;6.70;;;21.50;52.50;;;;;;4478998;31;20165;-69
2021/12/06 12:26:12;;;;;;;7.38;5.45;;;21.40;53.30;;;;;;4479113;31;20225;-69
2021/12/06 12:29:11;;;;;;;7.97;5.80;;;21.30;52.40;;;;;;4480096;31;20128;-71
2021/12/06 12:31:38;;;;;;;8.70;5.20;;;21.20;52.60;;;;;;4480350;31;20182;-69
2021/12/06 12:34:04;;;;;;;11.25;5.40;;;21.10;53.00;;;;;;4480002;31;20140;-69
2021/12/06 12:36:34;;;;;;;7.13;5.05;;;21.00;53.20;;;;;;4493570;31;20156;-67
2021/12/06 12:39:01;;;;;;;8.43;5.03;;;21.00;53.50;;;;;;4479651;31;20144;-68
2021/12/06 12:41:28;;;;;;;7.53;4.60;;;20.90;53.70;;;;;;4491739;31;20191;-68
2021/12/06 12:44:03;;;;;;;7.47;4.68;;;20.80;53.90;;;;;;4490096;31;20133;-69
2021/12/06 12:46:39;;;;;;;7.03;4.60;;;20.80;54.00;;;;;;4478648;31;20149;-69
2021/12/06 12:49:12;;;;;;;6.30;4.70;;;20.70;54.10;;;;;;4480823;31;20186;-69
2021/12/06 12:51:55;;;;;;;7.75;4.68;;;20.70;54.30;;;;;;4483285;31;20141;-68
2021/12/06 12:54:29;;;;;;;5.88;4.30;;;20.60;54.50;;;;;;4495087;31;20148;-69
2021/12/06 12:57:03;;;;;;;6.47;4.32;;;20.60;54.60;;;;;;4504546;31;20151;-71
2021/12/06 12:59:35;;;;;;;8.40;4.43;;;20.60;54.60;;;;;;4480685;31;20128;-68
2021/12/06 13:02:30;;;;;;;5.78;4.00;;;20.50;54.40;;;;;;4478761;32;20149;-68
2021/12/06 13:04:59;;;;;;;6.10;4.13;;;20.50;54.50;;;;;;4476042;32;20310;-69
2021/12/06 13:07:30;;;;;;;5.70;3.88;;;20.40;54.50;;;;;;4480706;32;20168;-68